sensor_id;sensor_type;location;lat;lon;timestamp;P1;durP1;ratioP1;P2;durP2;ratioP2
5730;SDS011;2890;51.950;7.668;2022-12-05T00:01:17;34.37;;;16.60;;
5730;SDS011;2890;51.950;7.668;2022-12-05T00:03:44;33.07;;;17.50;;
5730;SDS011;2890;51.950;7.668;2022-12-05T00:06:12;33.90;;;16.23;;
5730;SDS011;2890;51.950;7.668;2022-12-05T00:08:39;34.10;;;16.43;;
5730;SDS011;2890;51.950;7.668;2022-12-05T00:11:09;28.47;;;15.93;;
5730;SDS011;2890;51.950;7.668;2022-12-05T00:13:38;34.47;;;16.93;;
5730;SDS011;2890;51.950;7.668;2022-12-05T00:16:06;30.60;;;16.17;;
5730;SDS011;2890;51.950;7.668;2022-12-05T00:18:34;31.67;;;16.27;;
5730;SDS011;2890;51.950;7.668;2022-12-05T00:21:01;30.13;;;16.00;;
5730;SDS011;2890;51.950;7.668;2022-12-05T00:23:29;32.50;;;16.60;;
5730;SDS011;2890;51.950;7.668;2022-12-05T00:25:56;33.67;;;16.73;;
5730;SDS011;2890;51.950;7.668;2022-12-05T00:28:23;31.67;;;17.23;;
5730;SDS011;2890;51.950;7.668;2022-12-05T00:30:52;34.20;;;16.83;;
5730;SDS011;2890;51.950;7.668;2022-12-05T00:33:19;30.43;;;15.80;;
5730;SDS011;2890;51.950;7.668;2022-12-05T00:35:46;32.40;;;15.77;;
5730;SDS011;2890;51.950;7.668;2022-12-05T00:38:13;33.67;;;16.33;;
5730;SDS011;2890;51.950;7.668;2022-12-05T00:40:40;27.73;;;14.50;;
5730;SDS011;2890;51.950;7.668;2022-12-05T00:43:07;31.83;;;14.57;;
5730;SDS011;2890;51.950;7.668;2022-12-05T00:45:34;31.00;;;15.67;;
5730;SDS011;2890;51.950;7.668;2022-12-05T00:48:03;35.73;;;16.77;;
5730;SDS011;2890;51.950;7.668;2022-12-05T00:50:30;29.13;;;16.13;;
5730;SDS011;2890;51.950;7.668;2022-12-05T00:52:57;32.80;;;16.87;;
5730;SDS011;2890;51.950;7.668;2022-12-05T00:55:25;35.10;;;15.23;;
5730;SDS011;2890;51.950;7.668;2022-12-05T00:57:52;29.73;;;15.07;;
5730;SDS011;2890;51.950;7.668;2022-12-05T01:00:19;29.80;;;15.83;;
5730;SDS011;2890;51.950;7.668;2022-12-05T01:02:46;31.67;;;15.73;;
5730;SDS011;2890;51.950;7.668;2022-12-05T01:05:15;33.17;;;16.57;;
5730;SDS011;2890;51.950;7.668;2022-12-05T01:07:42;33.70;;;16.43;;
5730;SDS011;2890;51.950;7.668;2022-12-05T01:10:09;31.63;;;16.13;;
5730;SDS011;2890;51.950;7.668;2022-12-05T01:12:36;31.17;;;15.37;;
5730;SDS011;2890;51.950;7.668;2022-12-05T01:15:04;32.63;;;15.93;;
5730;SDS011;2890;51.950;7.668;2022-12-05T01:17:31;34.33;;;17.23;;
5730;SDS011;2890;51.950;7.668;2022-12-05T01:19:59;31.70;;;15.77;;
5730;SDS011;2890;51.950;7.668;2022-12-05T01:22:28;33.90;;;17.23;;
5730;SDS011;2890;51.950;7.668;2022-12-05T01:24:55;34.37;;;16.03;;
5730;SDS011;2890;51.950;7.668;2022-12-05T01:27:23;30.93;;;15.77;;
5730;SDS011;2890;51.950;7.668;2022-12-05T01:29:50;26.60;;;14.30;;
5730;SDS011;2890;51.950;7.668;2022-12-05T01:32:17;30.37;;;16.13;;
5730;SDS011;2890;51.950;7.668;2022-12-05T01:34:44;30.57;;;16.17;;
5730;SDS011;2890;51.950;7.668;2022-12-05T01:37:12;31.60;;;16.67;;
5730;SDS011;2890;51.950;7.668;2022-12-05T01:39:40;30.27;;;15.87;;
5730;SDS011;2890;51.950;7.668;2022-12-05T01:42:07;30.33;;;15.60;;
5730;SDS011;2890;51.950;7.668;2022-12-05T01:47:23;34.10;;;16.97;;
5730;SDS011;2890;51.950;7.668;2022-12-05T01:49:51;29.67;;;14.97;;
5730;SDS011;2890;51.950;7.668;2022-12-05T01:52:19;30.83;;;16.20;;
5730;SDS011;2890;51.950;7.668;2022-12-05T01:54:49;29.10;;;15.00;;
5730;SDS011;2890;51.950;7.668;2022-12-05T01:57:17;36.63;;;15.90;;
5730;SDS011;2890;51.950;7.668;2022-12-05T01:59:46;28.57;;;15.33;;
5730;SDS011;2890;51.950;7.668;2022-12-05T02:02:14;32.63;;;16.70;;
5730;SDS011;2890;51.950;7.668;2022-12-05T02:04:45;30.30;;;15.80;;
5730;SDS011;2890;51.950;7.668;2022-12-05T02:07:14;29.47;;;15.03;;
5730;SDS011;2890;51.950;7.668;2022-12-05T02:09:41;27.47;;;15.50;;
5730;SDS011;2890;51.950;7.668;2022-12-05T02:12:10;27.30;;;14.70;;
5730;SDS011;2890;51.950;7.668;2022-12-05T02:14:39;29.37;;;15.00;;
5730;SDS011;2890;51.950;7.668;2022-12-05T02:17:10;30.00;;;15.20;;
5730;SDS011;2890;51.950;7.668;2022-12-05T02:19:56;28.37;;;15.17;;
5730;SDS011;2890;51.950;7.668;2022-12-05T02:22:36;34.37;;;15.67;;
5730;SDS011;2890;51.950;7.668;2022-12-05T02:25:15;28.37;;;14.73;;
5730;SDS011;2890;51.950;7.668;2022-12-05T02:27:56;30.53;;;14.40;;
5730;SDS011;2890;51.950;7.668;2022-12-05T02:30:35;32.80;;;15.77;;
5730;SDS011;2890;51.950;7.668;2022-12-05T02:33:06;34.27;;;15.80;;
5730;SDS011;2890;51.950;7.668;2022-12-05T02:35:45;28.07;;;14.37;;
5730;SDS011;2890;51.950;7.668;2022-12-05T02:38:18;27.50;;;14.60;;
5730;SDS011;2890;51.950;7.668;2022-12-05T02:40:49;23.90;;;13.97;;
5730;SDS011;2890;51.950;7.668;2022-12-05T02:43:19;33.07;;;16.57;;
5730;SDS011;2890;51.950;7.668;2022-12-05T02:45:50;27.90;;;14.37;;
5730;SDS011;2890;51.950;7.668;2022-12-05T02:48:20;25.40;;;15.00;;
5730;SDS011;2890;51.950;7.668;2022-12-05T02:50:47;28.67;;;15.40;;
5730;SDS011;2890;51.950;7.668;2022-12-05T02:53:15;26.07;;;14.73;;
5730;SDS011;2890;51.950;7.668;2022-12-05T02:55:43;26.87;;;15.07;;
5730;SDS011;2890;51.950;7.668;2022-12-05T02:58:14;29.80;;;15.80;;
5730;SDS011;2890;51.950;7.668;2022-12-05T03:00:43;28.97;;;15.27;;
5730;SDS011;2890;51.950;7.668;2022-12-05T03:03:13;30.93;;;15.70;;
5730;SDS011;2890;51.950;7.668;2022-12-05T03:05:41;26.83;;;15.40;;
5730;SDS011;2890;51.950;7.668;2022-12-05T03:08:09;30.53;;;15.83;;
5730;SDS011;2890;51.950;7.668;2022-12-05T03:10:38;31.93;;;14.53;;
5730;SDS011;2890;51.950;7.668;2022-12-05T03:13:08;30.73;;;16.13;;
5730;SDS011;2890;51.950;7.668;2022-12-05T03:15:37;27.10;;;15.20;;
5730;SDS011;2890;51.950;7.668;2022-12-05T03:18:07;37.93;;;15.57;;
5730;SDS011;2890;51.950;7.668;2022-12-05T03:20:37;31.03;;;15.73;;
5730;SDS011;2890;51.950;7.668;2022-12-05T03:23:07;30.93;;;15.90;;
5730;SDS011;2890;51.950;7.668;2022-12-05T03:25:39;28.10;;;15.97;;
5730;SDS011;2890;51.950;7.668;2022-12-05T03:28:09;29.07;;;15.13;;
5730;SDS011;2890;51.950;7.668;2022-12-05T03:30:44;28.57;;;14.50;;
5730;SDS011;2890;51.950;7.668;2022-12-05T03:33:14;29.83;;;15.93;;
5730;SDS011;2890;51.950;7.668;2022-12-05T03:35:44;32.40;;;15.43;;
5730;SDS011;2890;51.950;7.668;2022-12-05T03:38:15;28.40;;;15.30;;
5730;SDS011;2890;51.950;7.668;2022-12-05T03:40:45;27.60;;;14.30;;
5730;SDS011;2890;51.950;7.668;2022-12-05T03:43:15;28.10;;;14.07;;
5730;SDS011;2890;51.950;7.668;2022-12-05T03:48:49;30.73;;;15.63;;
5730;SDS011;2890;51.950;7.668;2022-12-05T03:51:21;30.27;;;15.90;;
5730;SDS011;2890;51.950;7.668;2022-12-05T03:53:50;27.60;;;14.83;;
5730;SDS011;2890;51.950;7.668;2022-12-05T03:56:20;27.03;;;14.73;;
5730;SDS011;2890;51.950;7.668;2022-12-05T03:58:53;26.17;;;14.73;;
5730;SDS011;2890;51.950;7.668;2022-12-05T04:01:21;30.83;;;15.60;;
5730;SDS011;2890;51.950;7.668;2022-12-05T04:03:49;33.23;;;16.77;;
5730;SDS011;2890;51.950;7.668;2022-12-05T04:06:22;26.87;;;14.93;;
5730;SDS011;2890;51.950;7.668;2022-12-05T04:08:52;31.53;;;15.43;;
5730;SDS011;2890;51.950;7.668;2022-12-05T04:11:21;26.93;;;15.17;;
5730;SDS011;2890;51.950;7.668;2022-12-05T04:13:51;26.90;;;13.97;;
5730;SDS011;2890;51.950;7.668;2022-12-05T04:16:18;33.30;;;15.47;;
5730;SDS011;2890;51.950;7.668;2022-12-05T04:19:04;32.10;;;15.47;;
5730;SDS011;2890;51.950;7.668;2022-12-05T04:21:36;30.17;;;16.37;;
5730;SDS011;2890;51.950;7.668;2022-12-05T04:24:03;29.27;;;14.83;;
5730;SDS011;2890;51.950;7.668;2022-12-05T04:26:51;30.97;;;15.50;;
5730;SDS011;2890;51.950;7.668;2022-12-05T04:29:22;27.27;;;14.33;;
5730;SDS011;2890;51.950;7.668;2022-12-05T04:31:54;29.80;;;15.33;;
5730;SDS011;2890;51.950;7.668;2022-12-05T04:34:23;25.40;;;15.53;;
5730;SDS011;2890;51.950;7.668;2022-12-05T04:36:55;30.00;;;16.33;;
5730;SDS011;2890;51.950;7.668;2022-12-05T04:39:24;29.63;;;16.30;;
5730;SDS011;2890;51.950;7.668;2022-12-05T04:41:53;28.60;;;14.40;;
5730;SDS011;2890;51.950;7.668;2022-12-05T04:44:22;25.80;;;14.57;;
5730;SDS011;2890;51.950;7.668;2022-12-05T04:46:51;31.13;;;15.27;;
5730;SDS011;2890;51.950;7.668;2022-12-05T04:49:20;29.30;;;15.70;;
5730;SDS011;2890;51.950;7.668;2022-12-05T04:51:48;27.47;;;14.90;;
5730;SDS011;2890;51.950;7.668;2022-12-05T04:54:18;29.00;;;15.93;;
5730;SDS011;2890;51.950;7.668;2022-12-05T04:56:47;28.23;;;15.50;;
5730;SDS011;2890;51.950;7.668;2022-12-05T04:59:16;26.53;;;14.90;;
5730;SDS011;2890;51.950;7.668;2022-12-05T05:01:44;23.77;;;12.77;;
5730;SDS011;2890;51.950;7.668;2022-12-05T05:04:13;23.40;;;14.20;;
5730;SDS011;2890;51.950;7.668;2022-12-05T05:06:43;28.17;;;14.97;;
5730;SDS011;2890;51.950;7.668;2022-12-05T05:09:10;29.30;;;14.93;;
5730;SDS011;2890;51.950;7.668;2022-12-05T05:11:38;25.87;;;15.27;;
5730;SDS011;2890;51.950;7.668;2022-12-05T05:14:05;25.10;;;14.23;;
5730;SDS011;2890;51.950;7.668;2022-12-05T05:16:35;29.10;;;14.77;;
5730;SDS011;2890;51.950;7.668;2022-12-05T05:19:02;26.77;;;15.50;;
5730;SDS011;2890;51.950;7.668;2022-12-05T05:21:30;25.73;;;14.53;;
5730;SDS011;2890;51.950;7.668;2022-12-05T05:23:58;26.27;;;14.40;;
5730;SDS011;2890;51.950;7.668;2022-12-05T05:26:25;24.07;;;14.33;;
5730;SDS011;2890;51.950;7.668;2022-12-05T05:28:55;26.30;;;15.57;;
5730;SDS011;2890;51.950;7.668;2022-12-05T05:31:22;32.47;;;15.17;;
5730;SDS011;2890;51.950;7.668;2022-12-05T05:33:50;28.43;;;15.43;;
5730;SDS011;2890;51.950;7.668;2022-12-05T05:36:18;26.27;;;15.17;;
5730;SDS011;2890;51.950;7.668;2022-12-05T05:38:46;22.27;;;12.70;;
5730;SDS011;2890;51.950;7.668;2022-12-05T05:41:14;22.50;;;13.47;;
5730;SDS011;2890;51.950;7.668;2022-12-05T05:43:42;23.77;;;13.10;;
5730;SDS011;2890;51.950;7.668;2022-12-05T05:46:10;25.33;;;13.00;;
5730;SDS011;2890;51.950;7.668;2022-12-05T05:48:38;24.20;;;12.93;;
5730;SDS011;2890;51.950;7.668;2022-12-05T05:51:06;25.07;;;13.90;;
5730;SDS011;2890;51.950;7.668;2022-12-05T05:53:33;20.97;;;12.57;;
5730;SDS011;2890;51.950;7.668;2022-12-05T05:56:01;21.47;;;12.83;;
5730;SDS011;2890;51.950;7.668;2022-12-05T05:58:28;21.40;;;11.87;;
5730;SDS011;2890;51.950;7.668;2022-12-05T06:01:00;21.57;;;12.83;;
5730;SDS011;2890;51.950;7.668;2022-12-05T06:03:29;21.07;;;13.00;;
5730;SDS011;2890;51.950;7.668;2022-12-05T06:05:56;20.20;;;12.67;;
5730;SDS011;2890;51.950;7.668;2022-12-05T06:08:24;21.57;;;12.70;;
5730;SDS011;2890;51.950;7.668;2022-12-05T06:10:51;24.37;;;13.37;;
5730;SDS011;2890;51.950;7.668;2022-12-05T06:13:18;23.50;;;13.23;;
5730;SDS011;2890;51.950;7.668;2022-12-05T06:15:45;22.33;;;12.77;;
5730;SDS011;2890;51.950;7.668;2022-12-05T06:18:12;20.87;;;12.60;;
5730;SDS011;2890;51.950;7.668;2022-12-05T06:20:41;22.90;;;12.97;;
5730;SDS011;2890;51.950;7.668;2022-12-05T06:23:08;26.80;;;14.03;;
5730;SDS011;2890;51.950;7.668;2022-12-05T06:25:35;22.93;;;13.27;;
5730;SDS011;2890;51.950;7.668;2022-12-05T06:28:02;20.27;;;13.20;;
5730;SDS011;2890;51.950;7.668;2022-12-05T06:30:29;20.80;;;12.67;;
5730;SDS011;2890;51.950;7.668;2022-12-05T06:32:56;21.93;;;11.60;;
5730;SDS011;2890;51.950;7.668;2022-12-05T06:35:24;24.40;;;13.30;;
5730;SDS011;2890;51.950;7.668;2022-12-05T06:37:52;21.87;;;13.23;;
5730;SDS011;2890;51.950;7.668;2022-12-05T06:40:19;19.20;;;11.83;;
5730;SDS011;2890;51.950;7.668;2022-12-05T06:42:47;21.50;;;12.03;;
5730;SDS011;2890;51.950;7.668;2022-12-05T06:45:14;23.50;;;13.47;;
5730;SDS011;2890;51.950;7.668;2022-12-05T06:47:41;23.23;;;12.50;;
5730;SDS011;2890;51.950;7.668;2022-12-05T06:50:08;26.27;;;13.43;;
5730;SDS011;2890;51.950;7.668;2022-12-05T06:52:35;21.80;;;12.43;;
5730;SDS011;2890;51.950;7.668;2022-12-05T06:55:05;22.00;;;12.10;;
5730;SDS011;2890;51.950;7.668;2022-12-05T06:57:32;23.47;;;12.33;;
5730;SDS011;2890;51.950;7.668;2022-12-05T06:59:59;23.43;;;11.93;;
5730;SDS011;2890;51.950;7.668;2022-12-05T07:02:40;23.07;;;11.83;;
5730;SDS011;2890;51.950;7.668;2022-12-05T07:05:07;22.10;;;12.40;;
5730;SDS011;2890;51.950;7.668;2022-12-05T07:07:35;19.70;;;12.30;;
5730;SDS011;2890;51.950;7.668;2022-12-05T07:10:02;24.20;;;13.10;;
5730;SDS011;2890;51.950;7.668;2022-12-05T07:12:31;20.13;;;12.60;;
5730;SDS011;2890;51.950;7.668;2022-12-05T07:14:59;22.37;;;11.60;;
5730;SDS011;2890;51.950;7.668;2022-12-05T07:17:26;22.93;;;12.23;;
5730;SDS011;2890;51.950;7.668;2022-12-05T07:19:54;24.33;;;12.30;;
5730;SDS011;2890;51.950;7.668;2022-12-05T07:22:21;20.70;;;11.93;;
5730;SDS011;2890;51.950;7.668;2022-12-05T07:24:49;20.87;;;11.97;;
5730;SDS011;2890;51.950;7.668;2022-12-05T07:27:17;22.77;;;12.77;;
5730;SDS011;2890;51.950;7.668;2022-12-05T07:29:45;21.10;;;11.93;;
5730;SDS011;2890;51.950;7.668;2022-12-05T07:32:12;20.17;;;12.10;;
5730;SDS011;2890;51.950;7.668;2022-12-05T07:34:40;21.60;;;12.23;;
5730;SDS011;2890;51.950;7.668;2022-12-05T07:37:07;26.23;;;11.90;;
5730;SDS011;2890;51.950;7.668;2022-12-05T07:39:34;21.63;;;13.10;;
5730;SDS011;2890;51.950;7.668;2022-12-05T07:42:01;23.37;;;11.80;;
5730;SDS011;2890;51.950;7.668;2022-12-05T07:44:28;23.97;;;12.60;;
5730;SDS011;2890;51.950;7.668;2022-12-05T07:46:57;23.33;;;11.97;;
5730;SDS011;2890;51.950;7.668;2022-12-05T07:49:25;23.87;;;12.10;;
5730;SDS011;2890;51.950;7.668;2022-12-05T07:51:52;22.43;;;11.77;;
5730;SDS011;2890;51.950;7.668;2022-12-05T07:54:19;21.33;;;12.10;;
5730;SDS011;2890;51.950;7.668;2022-12-05T07:56:46;21.20;;;12.43;;
5730;SDS011;2890;51.950;7.668;2022-12-05T07:59:13;24.30;;;11.60;;
5730;SDS011;2890;51.950;7.668;2022-12-05T08:01:40;24.90;;;12.10;;
5730;SDS011;2890;51.950;7.668;2022-12-05T08:04:09;20.87;;;11.87;;
5730;SDS011;2890;51.950;7.668;2022-12-05T08:06:36;25.90;;;14.00;;
5730;SDS011;2890;51.950;7.668;2022-12-05T08:09:03;23.10;;;12.40;;
5730;SDS011;2890;51.950;7.668;2022-12-05T08:11:31;22.73;;;12.63;;
5730;SDS011;2890;51.950;7.668;2022-12-05T08:14:00;21.90;;;12.27;;
5730;SDS011;2890;51.950;7.668;2022-12-05T08:16:28;22.87;;;12.93;;
5730;SDS011;2890;51.950;7.668;2022-12-05T08:18:56;20.43;;;12.57;;
5730;SDS011;2890;51.950;7.668;2022-12-05T08:21:26;21.40;;;12.13;;
5730;SDS011;2890;51.950;7.668;2022-12-05T08:23:53;20.90;;;12.87;;
5730;SDS011;2890;51.950;7.668;2022-12-05T08:26:21;20.87;;;12.37;;
5730;SDS011;2890;51.950;7.668;2022-12-05T08:28:50;22.33;;;12.23;;
5730;SDS011;2890;51.950;7.668;2022-12-05T08:31:18;23.80;;;12.60;;
5730;SDS011;2890;51.950;7.668;2022-12-05T08:33:47;22.87;;;12.93;;
5730;SDS011;2890;51.950;7.668;2022-12-05T08:36:15;23.13;;;12.97;;
5730;SDS011;2890;51.950;7.668;2022-12-05T08:38:43;18.83;;;11.70;;
5730;SDS011;2890;51.950;7.668;2022-12-05T08:41:11;18.77;;;12.17;;
5730;SDS011;2890;51.950;7.668;2022-12-05T08:43:39;19.47;;;12.00;;
5730;SDS011;2890;51.950;7.668;2022-12-05T08:46:06;21.97;;;12.13;;
5730;SDS011;2890;51.950;7.668;2022-12-05T08:48:33;19.47;;;11.87;;
5730;SDS011;2890;51.950;7.668;2022-12-05T08:51:03;21.53;;;12.27;;
5730;SDS011;2890;51.950;7.668;2022-12-05T08:53:31;22.63;;;12.67;;
5730;SDS011;2890;51.950;7.668;2022-12-05T08:56:03;21.87;;;12.73;;
5730;SDS011;2890;51.950;7.668;2022-12-05T08:58:30;22.07;;;11.93;;
5730;SDS011;2890;51.950;7.668;2022-12-05T09:01:04;19.90;;;11.57;;
5730;SDS011;2890;51.950;7.668;2022-12-05T09:03:33;19.23;;;11.77;;
5730;SDS011;2890;51.950;7.668;2022-12-05T09:06:04;22.63;;;12.83;;
5730;SDS011;2890;51.950;7.668;2022-12-05T09:08:34;20.23;;;12.50;;
5730;SDS011;2890;51.950;7.668;2022-12-05T09:11:05;19.60;;;12.03;;
5730;SDS011;2890;51.950;7.668;2022-12-05T09:13:32;21.13;;;11.83;;
5730;SDS011;2890;51.950;7.668;2022-12-05T09:16:03;24.67;;;13.20;;
5730;SDS011;2890;51.950;7.668;2022-12-05T09:18:31;20.80;;;11.40;;
5730;SDS011;2890;51.950;7.668;2022-12-05T09:21:04;19.63;;;11.40;;
5730;SDS011;2890;51.950;7.668;2022-12-05T09:23:34;19.13;;;12.00;;
5730;SDS011;2890;51.950;7.668;2022-12-05T09:26:02;22.50;;;11.70;;
5730;SDS011;2890;51.950;7.668;2022-12-05T09:28:33;20.60;;;11.80;;
5730;SDS011;2890;51.950;7.668;2022-12-05T09:31:01;19.10;;;12.60;;
5730;SDS011;2890;51.950;7.668;2022-12-05T09:33:29;18.97;;;11.10;;
5730;SDS011;2890;51.950;7.668;2022-12-05T09:36:01;22.93;;;12.57;;
5730;SDS011;2890;51.950;7.668;2022-12-05T09:38:28;20.47;;;11.53;;
5730;SDS011;2890;51.950;7.668;2022-12-05T09:41:07;19.60;;;12.27;;
5730;SDS011;2890;51.950;7.668;2022-12-05T09:43:42;21.20;;;13.00;;
5730;SDS011;2890;51.950;7.668;2022-12-05T09:46:16;17.70;;;11.47;;
5730;SDS011;2890;51.950;7.668;2022-12-05T09:48:44;24.33;;;12.97;;
5730;SDS011;2890;51.950;7.668;2022-12-05T09:51:23;17.37;;;11.23;;
5730;SDS011;2890;51.950;7.668;2022-12-05T09:53:51;19.03;;;10.93;;
5730;SDS011;2890;51.950;7.668;2022-12-05T09:56:22;14.83;;;9.80;;
5730;SDS011;2890;51.950;7.668;2022-12-05T09:58:53;16.80;;;10.00;;
5730;SDS011;2890;51.950;7.668;2022-12-05T10:01:26;18.27;;;11.40;;
5730;SDS011;2890;51.950;7.668;2022-12-05T10:04:08;16.90;;;10.53;;
5730;SDS011;2890;51.950;7.668;2022-12-05T10:06:39;17.83;;;10.23;;
5730;SDS011;2890;51.950;7.668;2022-12-05T10:09:11;15.13;;;10.87;;
5730;SDS011;2890;51.950;7.668;2022-12-05T10:11:40;16.23;;;10.17;;
5730;SDS011;2890;51.950;7.668;2022-12-05T10:14:11;17.37;;;10.00;;
5730;SDS011;2890;51.950;7.668;2022-12-05T10:16:44;19.00;;;10.10;;
5730;SDS011;2890;51.950;7.668;2022-12-05T10:19:14;16.10;;;10.03;;
5730;SDS011;2890;51.950;7.668;2022-12-05T10:21:44;15.53;;;10.37;;
5730;SDS011;2890;51.950;7.668;2022-12-05T10:24:14;20.50;;;10.67;;
5730;SDS011;2890;51.950;7.668;2022-12-05T10:26:42;15.30;;;8.73;;
5730;SDS011;2890;51.950;7.668;2022-12-05T10:29:13;14.77;;;9.10;;
5730;SDS011;2890;51.950;7.668;2022-12-05T10:31:44;13.70;;;9.17;;
5730;SDS011;2890;51.950;7.668;2022-12-05T10:34:17;14.33;;;9.00;;
5730;SDS011;2890;51.950;7.668;2022-12-05T10:36:51;16.00;;;10.27;;
5730;SDS011;2890;51.950;7.668;2022-12-05T10:39:19;16.50;;;10.47;;
5730;SDS011;2890;51.950;7.668;2022-12-05T10:41:46;14.63;;;9.70;;
5730;SDS011;2890;51.950;7.668;2022-12-05T10:44:15;17.23;;;9.57;;
5730;SDS011;2890;51.950;7.668;2022-12-05T10:46:43;15.43;;;10.10;;
5730;SDS011;2890;51.950;7.668;2022-12-05T10:49:12;14.47;;;9.40;;
5730;SDS011;2890;51.950;7.668;2022-12-05T10:51:40;16.77;;;9.30;;
5730;SDS011;2890;51.950;7.668;2022-12-05T10:54:14;13.00;;;10.03;;
5730;SDS011;2890;51.950;7.668;2022-12-05T10:56:43;12.37;;;9.40;;
5730;SDS011;2890;51.950;7.668;2022-12-05T10:59:13;13.07;;;9.17;;
5730;SDS011;2890;51.950;7.668;2022-12-05T11:01:44;14.10;;;9.27;;
5730;SDS011;2890;51.950;7.668;2022-12-05T11:04:19;12.70;;;8.70;;
5730;SDS011;2890;51.950;7.668;2022-12-05T11:06:51;12.20;;;8.53;;
5730;SDS011;2890;51.950;7.668;2022-12-05T11:09:19;13.83;;;9.10;;
5730;SDS011;2890;51.950;7.668;2022-12-05T11:11:56;12.63;;;9.23;;
5730;SDS011;2890;51.950;7.668;2022-12-05T11:14:24;14.03;;;8.70;;
5730;SDS011;2890;51.950;7.668;2022-12-05T11:16:53;14.00;;;8.90;;
5730;SDS011;2890;51.950;7.668;2022-12-05T11:19:25;14.10;;;10.13;;
5730;SDS011;2890;51.950;7.668;2022-12-05T11:21:53;14.53;;;8.67;;
5730;SDS011;2890;51.950;7.668;2022-12-05T11:24:21;12.80;;;8.47;;
5730;SDS011;2890;51.950;7.668;2022-12-05T11:26:48;12.73;;;8.00;;
5730;SDS011;2890;51.950;7.668;2022-12-05T11:29:28;13.50;;;9.47;;
5730;SDS011;2890;51.950;7.668;2022-12-05T11:31:57;13.20;;;8.57;;
5730;SDS011;2890;51.950;7.668;2022-12-05T11:34:25;12.03;;;8.13;;
5730;SDS011;2890;51.950;7.668;2022-12-05T11:36:55;11.33;;;7.80;;
5730;SDS011;2890;51.950;7.668;2022-12-05T11:39:22;13.93;;;7.80;;
5730;SDS011;2890;51.950;7.668;2022-12-05T11:41:56;11.17;;;8.07;;
5730;SDS011;2890;51.950;7.668;2022-12-05T11:44:29;12.13;;;7.50;;
5730;SDS011;2890;51.950;7.668;2022-12-05T11:47:04;13.10;;;8.00;;
5730;SDS011;2890;51.950;7.668;2022-12-05T11:49:40;11.90;;;7.97;;
5730;SDS011;2890;51.950;7.668;2022-12-05T11:52:16;8.63;;;7.20;;
5730;SDS011;2890;51.950;7.668;2022-12-05T11:54:58;12.23;;;8.40;;
5730;SDS011;2890;51.950;7.668;2022-12-05T11:57:46;11.17;;;7.53;;
5730;SDS011;2890;51.950;7.668;2022-12-05T12:00:18;9.53;;;7.13;;
5730;SDS011;2890;51.950;7.668;2022-12-05T12:02:54;13.37;;;8.90;;
5730;SDS011;2890;51.950;7.668;2022-12-05T12:05:29;13.07;;;7.77;;
5730;SDS011;2890;51.950;7.668;2022-12-05T12:08:02;10.83;;;7.67;;
5730;SDS011;2890;51.950;7.668;2022-12-05T12:10:35;10.43;;;7.00;;
5730;SDS011;2890;51.950;7.668;2022-12-05T12:13:10;12.27;;;7.70;;
5730;SDS011;2890;51.950;7.668;2022-12-05T12:15:45;10.77;;;7.10;;
5730;SDS011;2890;51.950;7.668;2022-12-05T12:18:17;11.57;;;8.00;;
5730;SDS011;2890;51.950;7.668;2022-12-05T12:20:50;12.87;;;7.60;;
5730;SDS011;2890;51.950;7.668;2022-12-05T12:23:32;12.37;;;8.60;;
5730;SDS011;2890;51.950;7.668;2022-12-05T12:26:07;10.17;;;7.50;;
5730;SDS011;2890;51.950;7.668;2022-12-05T12:28:41;14.23;;;8.43;;
5730;SDS011;2890;51.950;7.668;2022-12-05T12:31:22;12.63;;;8.17;;
5730;SDS011;2890;51.950;7.668;2022-12-05T12:33:54;12.43;;;7.80;;
5730;SDS011;2890;51.950;7.668;2022-12-05T12:36:23;11.43;;;8.10;;
5730;SDS011;2890;51.950;7.668;2022-12-05T12:38:59;11.00;;;8.03;;
5730;SDS011;2890;51.950;7.668;2022-12-05T12:41:33;11.53;;;8.10;;
5730;SDS011;2890;51.950;7.668;2022-12-05T12:44:04;9.77;;;7.33;;
5730;SDS011;2890;51.950;7.668;2022-12-05T12:46:38;13.47;;;8.20;;
5730;SDS011;2890;51.950;7.668;2022-12-05T12:49:21;11.00;;;8.20;;
5730;SDS011;2890;51.950;7.668;2022-12-05T12:51:51;11.37;;;8.50;;
5730;SDS011;2890;51.950;7.668;2022-12-05T12:54:29;11.83;;;8.53;;
5730;SDS011;2890;51.950;7.668;2022-12-05T12:57:02;12.80;;;8.03;;
5730;SDS011;2890;51.950;7.668;2022-12-05T12:59:45;12.00;;;8.10;;
5730;SDS011;2890;51.950;7.668;2022-12-05T13:02:17;10.53;;;7.93;;
5730;SDS011;2890;51.950;7.668;2022-12-05T13:04:51;12.33;;;8.23;;
5730;SDS011;2890;51.950;7.668;2022-12-05T13:07:20;10.50;;;7.33;;
5730;SDS011;2890;51.950;7.668;2022-12-05T13:09:51;12.80;;;8.93;;
5730;SDS011;2890;51.950;7.668;2022-12-05T13:12:20;12.37;;;7.57;;
5730;SDS011;2890;51.950;7.668;2022-12-05T13:14:48;12.07;;;8.30;;
5730;SDS011;2890;51.950;7.668;2022-12-05T13:17:18;12.63;;;8.27;;
5730;SDS011;2890;51.950;7.668;2022-12-05T13:19:47;11.93;;;8.13;;
5730;SDS011;2890;51.950;7.668;2022-12-05T13:22:17;10.50;;;8.27;;
5730;SDS011;2890;51.950;7.668;2022-12-05T13:24:44;12.67;;;7.77;;
5730;SDS011;2890;51.950;7.668;2022-12-05T13:27:13;10.63;;;7.57;;
5730;SDS011;2890;51.950;7.668;2022-12-05T13:29:41;10.87;;;7.63;;
5730;SDS011;2890;51.950;7.668;2022-12-05T13:32:22;13.97;;;7.27;;
5730;SDS011;2890;51.950;7.668;2022-12-05T13:34:50;9.97;;;7.77;;
5730;SDS011;2890;51.950;7.668;2022-12-05T13:37:23;10.77;;;7.73;;
5730;SDS011;2890;51.950;7.668;2022-12-05T13:40:23;14.03;;;7.20;;
5730;SDS011;2890;51.950;7.668;2022-12-05T13:43:09;10.97;;;8.17;;
5730;SDS011;2890;51.950;7.668;2022-12-05T13:45:37;11.10;;;8.33;;
5730;SDS011;2890;51.950;7.668;2022-12-05T13:48:09;13.80;;;8.77;;
5730;SDS011;2890;51.950;7.668;2022-12-05T13:50:40;14.10;;;7.60;;
5730;SDS011;2890;51.950;7.668;2022-12-05T13:53:18;11.23;;;7.93;;
5730;SDS011;2890;51.950;7.668;2022-12-05T13:55:53;13.87;;;8.77;;
5730;SDS011;2890;51.950;7.668;2022-12-05T13:58:32;15.00;;;9.07;;
5730;SDS011;2890;51.950;7.668;2022-12-05T14:03:54;9.63;;;7.83;;
5730;SDS011;2890;51.950;7.668;2022-12-05T14:06:37;10.73;;;7.70;;
5730;SDS011;2890;51.950;7.668;2022-12-05T14:09:29;9.90;;;7.83;;
5730;SDS011;2890;51.950;7.668;2022-12-05T14:14:58;10.07;;;7.50;;
5730;SDS011;2890;51.950;7.668;2022-12-05T14:17:25;11.20;;;8.17;;
5730;SDS011;2890;51.950;7.668;2022-12-05T14:20:07;10.90;;;8.20;;
5730;SDS011;2890;51.950;7.668;2022-12-05T14:22:55;11.40;;;8.30;;
5730;SDS011;2890;51.950;7.668;2022-12-05T14:25:29;11.63;;;8.13;;
5730;SDS011;2890;51.950;7.668;2022-12-05T14:28:00;10.80;;;8.10;;
5730;SDS011;2890;51.950;7.668;2022-12-05T14:30:29;11.70;;;8.70;;
5730;SDS011;2890;51.950;7.668;2022-12-05T14:32:59;12.77;;;8.43;;
5730;SDS011;2890;51.950;7.668;2022-12-05T14:35:27;12.87;;;9.17;;
5730;SDS011;2890;51.950;7.668;2022-12-05T14:37:55;12.50;;;8.23;;
5730;SDS011;2890;51.950;7.668;2022-12-05T14:40:25;11.97;;;7.97;;
5730;SDS011;2890;51.950;7.668;2022-12-05T14:42:55;10.90;;;7.50;;
5730;SDS011;2890;51.950;7.668;2022-12-05T14:45:27;11.63;;;8.53;;
5730;SDS011;2890;51.950;7.668;2022-12-05T14:47:56;12.60;;;8.53;;
5730;SDS011;2890;51.950;7.668;2022-12-05T14:50:34;14.07;;;8.67;;
5730;SDS011;2890;51.950;7.668;2022-12-05T14:53:17;11.50;;;7.67;;
5730;SDS011;2890;51.950;7.668;2022-12-05T14:55:47;10.67;;;8.03;;
5730;SDS011;2890;51.950;7.668;2022-12-05T14:58:17;12.43;;;9.20;;
5730;SDS011;2890;51.950;7.668;2022-12-05T15:00:45;10.87;;;7.90;;
5730;SDS011;2890;51.950;7.668;2022-12-05T15:03:15;13.80;;;9.37;;
5730;SDS011;2890;51.950;7.668;2022-12-05T15:05:44;13.17;;;9.73;;
5730;SDS011;2890;51.950;7.668;2022-12-05T15:08:13;12.47;;;8.47;;
5730;SDS011;2890;51.950;7.668;2022-12-05T15:10:40;13.57;;;9.87;;
5730;SDS011;2890;51.950;7.668;2022-12-05T15:13:09;14.60;;;10.20;;
5730;SDS011;2890;51.950;7.668;2022-12-05T15:15:41;14.17;;;10.27;;
5730;SDS011;2890;51.950;7.668;2022-12-05T15:18:11;12.70;;;9.27;;
5730;SDS011;2890;51.950;7.668;2022-12-05T15:20:41;13.33;;;9.17;;
5730;SDS011;2890;51.950;7.668;2022-12-05T15:25:55;11.43;;;8.37;;